Time;durP1;ratioP1;P1;durP2;ratioP2;P2;SDS_P1;SDS_P2;PMS_P1;PMS_P2;Temp;Humidity;BMP_temperature;BMP_pressure;BME280_temperature;BME280_humidity;BME280_pressure;Samples;Min_cycle;Max_cycle;Signal;HPM_P1;HPM_P2
2023/09/10 00:01:26;;;;;;;10.05;4.53;;;;;;;;;;4954516;28;20367;-80
2023/09/10 00:03:58;;;;;;;12.85;5.60;;;;;;;;;;4954637;29;20394;-81
2023/09/10 00:06:29;;;;;;;13.80;5.10;;;;;;;;;;4954327;29;20043;-81
2023/09/10 00:09:01;;;;;;;30.63;8.65;;;;;;;;;;4918134;29;20063;-80
2023/09/10 00:11:37;;;;;;;11.65;5.22;;;;;;;;;;4917195;29;20430;-81
2023/09/10 00:14:09;;;;;;;11.18;5.57;;;;;;;;;;4934917;29;20396;-81
2023/09/10 00:16:43;;;;;;;11.15;5.35;;;;;;;;;;4934998;29;20051;-81
2023/09/10 00:19:15;;;;;;;14.68;5.18;;;;;;;;;;4935467;29;20039;-81
2023/09/10 00:21:47;;;;;;;11.27;5.25;;;;;;;;;;4918161;29;20052;-81
2023/09/10 00:24:17;;;;;;;12.18;5.50;;;;;;;;;;4933767;29;20043;-77
2023/09/10 00:26:47;;;;;;;11.95;4.95;;;;;;;;;;4935078;29;20047;-77
2023/09/10 00:29:17;;;;;;;8.50;4.93;;;;;;;;;;4934722;29;20039;-79
2023/09/10 00:31:52;;;;;;;10.63;5.15;;;;;;;;;;4935271;29;20510;-81
2023/09/10 00:34:32;;;;;;;14.95;6.75;;;;;;;;;;4934929;29;20511;-81
2023/09/10 00:37:03;;;;;;;17.60;5.63;;;;;;;;;;4935456;29;20046;-81
2023/09/10 00:39:33;;;;;;;11.32;4.70;;;;;;;;;;4934830;29;20051;-81
2023/09/10 00:42:05;;;;;;;10.13;5.22;;;;;;;;;;4933443;29;20376;-82
2023/09/10 00:44:41;;;;;;;9.82;5.15;;;;;;;;;;4928940;29;20466;-82
2023/09/10 00:47:13;;;;;;;11.38;4.78;;;;;;;;;;4953777;29;20047;-81
2023/09/10 00:49:44;;;;;;;9.85;5.13;;;;;;;;;;4951722;29;20140;-82
2023/09/10 00:52:21;;;;;;;11.32;5.50;;;;;;;;;;4952180;29;20403;-82
2023/09/10 00:54:53;;;;;;;13.73;5.15;;;;;;;;;;4952338;29;20058;-81
2023/09/10 00:57:25;;;;;;;17.48;5.75;;;;;;;;;;4952563;29;20051;-80
2023/09/10 00:59:56;;;;;;;14.55;4.88;;;;;;;;;;4939008;29;20040;-81
2023/09/10 01:02:30;;;;;;;14.70;4.95;;;;;;;;;;4933479;29;20071;-79
2023/09/10 01:05:05;;;;;;;15.20;5.35;;;;;;;;;;4934563;29;20059;-80
2023/09/10 01:07:39;;;;;;;18.70;7.07;;;;;;;;;;4934475;29;20043;-80
2023/09/10 01:10:11;;;;;;;17.35;6.78;;;;;;;;;;4949862;29;20058;-81
2023/09/10 01:13:06;;;;;;;14.68;5.75;;;;;;;;;;4953875;28;20058;-81
2023/09/10 01:15:44;;;;;;;28.10;5.63;;;;;;;;;;4939931;29;20050;-80
2023/09/10 01:18:20;;;;;;;27.30;6.40;;;;;;;;;;4957384;29;20062;-80
2023/09/10 01:20:51;;;;;;;20.02;7.22;;;;;;;;;;4940010;29;20051;-80
2023/09/10 01:23:44;;;;;;;25.88;7.15;;;;;;;;;;4957169;29;20043;-81
2023/09/10 01:26:19;;;;;;;26.15;6.57;;;;;;;;;;4947278;29;20541;-80
2023/09/10 01:28:52;;;;;;;51.55;7.90;;;;;;;;;;4964005;28;20043;-80
2023/09/10 01:31:25;;;;;;;36.33;7.60;;;;;;;;;;4976390;28;20504;-81
2023/09/10 01:34:02;;;;;;;18.42;7.15;;;;;;;;;;4960854;28;20039;-80
2023/09/10 01:36:42;;;;;;;27.98;7.43;;;;;;;;;;5000896;28;20069;-80
2023/09/10 01:39:38;;;;;;;38.00;7.72;;;;;;;;;;4985164;28;20030;-81
2023/09/10 01:42:10;;;;;;;25.00;6.70;;;;;;;;;;4999445;28;20042;-80
2023/09/10 01:44:42;;;;;;;27.98;7.88;;;;;;;;;;5000565;28;20023;-81
2023/09/10 01:47:13;;;;;;;16.73;6.70;;;;;;;;;;4983159;28;20049;-80
2023/09/10 01:49:45;;;;;;;21.13;6.75;;;;;;;;;;4984412;28;20047;-81
2023/09/10 01:52:16;;;;;;;24.20;7.15;;;;;;;;;;4970785;28;20055;-80
2023/09/10 01:54:46;;;;;;;24.83;6.80;;;;;;;;;;4959766;28;20046;-80
2023/09/10 01:57:16;;;;;;;28.08;6.28;;;;;;;;;;4976036;28;20050;-80
2023/09/10 01:59:46;;;;;;;20.08;6.05;;;;;;;;;;4943898;29;20047;-80
2023/09/10 02:02:20;;;;;;;32.97;6.47;;;;;;;;;;4939140;29;20068;-80
2023/09/10 02:04:51;;;;;;;26.40;6.45;;;;;;;;;;4956688;29;20054;-81
2023/09/10 02:07:21;;;;;;;24.05;7.22;;;;;;;;;;4967752;28;20473;-81
2023/09/10 02:09:53;;;;;;;25.88;7.15;;;;;;;;;;4958060;28;20042;-79
2023/09/10 02:12:25;;;;;;;14.55;5.78;;;;;;;;;;4958235;28;20047;-80
2023/09/10 02:14:58;;;;;;;24.40;7.05;;;;;;;;;;4976434;28;20416;-80
2023/09/10 02:17:29;;;;;;;16.58;7.22;;;;;;;;;;4975793;28;20035;-80
2023/09/10 02:19:59;;;;;;;18.92;7.28;;;;;;;;;;4976063;28;20039;-80
2023/09/10 02:22:30;;;;;;;25.13;7.28;;;;;;;;;;4957828;28;20046;-81
2023/09/10 02:25:03;;;;;;;20.75;7.13;;;;;;;;;;4974886;28;20051;-80
2023/09/10 02:27:38;;;;;;;19.75;7.53;;;;;;;;;;4975650;28;20500;-80
2023/09/10 02:30:10;;;;;;;25.88;7.88;;;;;;;;;;4975401;28;20423;-80
2023/09/10 02:32:45;;;;;;;23.25;8.15;;;;;;;;;;4957940;28;20053;-80
2023/09/10 02:35:19;;;;;;;24.08;7.90;;;;;;;;;;4957361;28;20058;-80
2023/09/10 02:37:54;;;;;;;23.70;8.40;;;;;;;;;;4958234;28;20066;-80
2023/09/10 02:40:24;;;;;;;21.30;7.72;;;;;;;;;;4975248;28;20050;-80
2023/09/10 02:42:54;;;;;;;21.83;7.00;;;;;;;;;;4957502;28;20047;-80
2023/09/10 02:45:26;;;;;;;24.92;7.47;;;;;;;;;;4942041;28;20509;-81
2023/09/10 02:47:57;;;;;;;26.73;7.18;;;;;;;;;;4975505;28;20046;-79
2023/09/10 02:50:30;;;;;;;25.38;7.63;;;;;;;;;;4957686;28;20051;-79
2023/09/10 02:53:01;;;;;;;26.67;7.57;;;;;;;;;;4957758;28;20050;-79
2023/09/10 02:55:31;;;;;;;24.92;7.47;;;;;;;;;;4958439;28;20127;-80
2023/09/10 02:58:02;;;;;;;29.10;7.38;;;;;;;;;;4967172;28;20039;-80
2023/09/10 03:00:33;;;;;;;21.27;6.57;;;;;;;;;;4956835;29;20051;-79
2023/09/10 03:03:05;;;;;;;19.17;6.28;;;;;;;;;;4923354;29;20051;-80
2023/09/10 03:05:36;;;;;;;19.85;6.82;;;;;;;;;;4956536;29;20467;-80
2023/09/10 03:08:09;;;;;;;15.50;5.57;;;;;;;;;;4938699;29;20383;-80
2023/09/10 03:10:41;;;;;;;15.20;5.50;;;;;;;;;;4938778;29;20059;-79
2023/09/10 03:13:12;;;;;;;14.48;4.95;;;;;;;;;;4956843;29;20050;-79
2023/09/10 03:15:48;;;;;;;12.80;5.18;;;;;;;;;;4938650;29;20051;-80
2023/09/10 03:18:21;;;;;;;20.10;5.90;;;;;;;;;;4938729;29;20062;-80
2023/09/10 03:20:52;;;;;;;18.23;6.18;;;;;;;;;;4956401;29;20039;-79
2023/09/10 03:23:24;;;;;;;10.70;6.00;;;;;;;;;;4938451;29;20048;-79
2023/09/10 03:25:54;;;;;;;16.77;6.15;;;;;;;;;;4956688;29;20047;-79
2023/09/10 03:28:24;;;;;;;19.08;6.70;;;;;;;;;;4956303;29;20489;-80
2023/09/10 03:30:58;;;;;;;15.55;6.47;;;;;;;;;;4923226;29;20514;-80
2023/09/10 03:33:30;;;;;;;12.80;5.40;;;;;;;;;;4938140;29;20054;-81
2023/09/10 03:36:05;;;;;;;16.55;6.05;;;;;;;;;;4938424;29;20058;-79
2023/09/10 03:38:38;;;;;;;12.30;5.97;;;;;;;;;;4938153;29;20055;-80
2023/09/10 03:41:09;;;;;;;16.95;7.13;;;;;;;;;;4955663;29;20043;-78
2023/09/10 03:43:40;;;;;;;13.25;5.68;;;;;;;;;;4922701;29;20382;-80
2023/09/10 03:46:11;;;;;;;16.80;5.32;;;;;;;;;;4956300;29;20054;-78
2023/09/10 03:48:43;;;;;;;12.93;5.38;;;;;;;;;;4923152;29;20047;-79
2023/09/10 03:51:13;;;;;;;16.73;5.32;;;;;;;;;;4938513;29;20051;-78
2023/09/10 03:53:46;;;;;;;16.50;5.53;;;;;;;;;;4937971;29;20047;-78
2023/09/10 03:56:17;;;;;;;17.30;5.60;;;;;;;;;;4938670;29;20467;-78
2023/09/10 03:58:49;;;;;;;8.18;4.57;;;;;;;;;;4937540;29;20498;-79
2023/09/10 04:01:19;;;;;;;7.85;4.03;;;;;;;;;;4937825;29;20054;-79
2023/09/10 04:03:51;;;;;;;10.48;4.90;;;;;;;;;;4955584;29;20043;-79
2023/09/10 04:06:22;;;;;;;15.63;4.47;;;;;;;;;;4955682;29;20374;-79
2023/09/10 04:08:56;;;;;;;12.43;4.53;;;;;;;;;;4938850;29;20055;-79
2023/09/10 04:11:26;;;;;;;9.18;5.22;;;;;;;;;;4937511;29;20050;-80
2023/09/10 04:13:58;;;;;;;8.27;4.43;;;;;;;;;;4938361;29;20047;-79
2023/09/10 04:16:30;;;;;;;13.85;5.13;;;;;;;;;;4938884;29;20046;-78
2023/09/10 04:19:06;;;;;;;10.70;5.32;;;;;;;;;;4937900;29;20391;-78
2023/09/10 04:21:35;;;;;;;19.40;5.47;;;;;;;;;;4937886;29;20054;-79
2023/09/10 04:24:07;;;;;;;26.85;6.72;;;;;;;;;;4955346;29;20048;-78
2023/09/10 04:26:38;;;;;;;23.45;5.47;;;;;;;;;;4937851;29;20050;-79
2023/09/10 04:29:09;;;;;;;10.00;5.10;;;;;;;;;;4955229;29;20339;-79
2023/09/10 04:31:42;;;;;;;12.63;4.85;;;;;;;;;;4937709;29;20059;-79
2023/09/10 04:34:14;;;;;;;13.07;5.78;;;;;;;;;;4938404;29;20519;-79
2023/09/10 04:36:46;;;;;;;22.38;6.63;;;;;;;;;;4937280;29;20051;-79
2023/09/10 04:39:20;;;;;;;17.23;6.47;;;;;;;;;;4922538;29;20047;-79
2023/09/10 04:41:51;;;;;;;24.65;6.20;;;;;;;;;;4938227;29;20364;-79
2023/09/10 04:44:21;;;;;;;17.02;5.78;;;;;;;;;;4937007;29;20073;-79
2023/09/10 04:46:54;;;;;;;25.33;5.80;;;;;;;;;;4936985;29;20051;-78
2023/09/10 04:49:27;;;;;;;15.02;4.53;;;;;;;;;;4926290;29;20044;-79
2023/09/10 04:51:59;;;;;;;19.63;4.82;;;;;;;;;;4941160;29;20039;-78
2023/09/10 04:54:31;;;;;;;13.55;4.78;;;;;;;;;;4941254;29;20043;-78
2023/09/10 04:57:01;;;;;;;28.30;5.00;;;;;;;;;;4941562;29;20047;-80
2023/09/10 04:59:33;;;;;;;17.10;5.00;;;;;;;;;;4940742;29;20490;-77
2023/09/10 05:02:05;;;;;;;16.73;4.82;;;;;;;;;;4941420;29;20058;-78
2023/09/10 05:04:37;;;;;;;13.57;4.57;;;;;;;;;;4958402;29;20047;-79
2023/09/10 05:07:09;;;;;;;9.77;4.18;;;;;;;;;;4940811;29;20051;-79
2023/09/10 05:09:40;;;;;;;9.18;4.35;;;;;;;;;;4940961;29;20479;-78
2023/09/10 05:12:10;;;;;;;13.85;4.75;;;;;;;;;;4941025;29;20047;-78
2023/09/10 05:14:41;;;;;;;9.60;3.83;;;;;;;;;;4941344;29;20470;-78
2023/09/10 05:17:13;;;;;;;8.73;4.18;;;;;;;;;;4942595;29;20047;-78
2023/09/10 05:19:47;;;;;;;8.88;4.22;;;;;;;;;;4941441;29;20051;-78
2023/09/10 05:22:18;;;;;;;10.32;4.65;;;;;;;;;;4940962;29;20391;-79
2023/09/10 05:24:52;;;;;;;10.43;4.55;;;;;;;;;;4940846;29;20058;-78
2023/09/10 05:27:25;;;;;;;12.70;5.28;;;;;;;;;;4940931;29;20047;-78
2023/09/10 05:29:57;;;;;;;11.68;4.88;;;;;;;;;;4925209;29;20058;-79
2023/09/10 05:32:28;;;;;;;10.77;4.65;;;;;;;;;;4951558;28;20374;-78
2023/09/10 05:35:01;;;;;;;10.38;5.10;;;;;;;;;;4977863;28;20035;-78
2023/09/10 05:37:32;;;;;;;12.82;4.68;;;;;;;;;;4959551;28;20046;-78
2023/09/10 05:40:07;;;;;;;10.27;4.63;;;;;;;;;;4977469;28;20042;-79
2023/09/10 05:42:36;;;;;;;11.23;5.30;;;;;;;;;;4976973;28;20046;-78
2023/09/10 05:45:11;;;;;;;14.80;5.38;;;;;;;;;;4977478;28;20042;-79
2023/09/10 05:47:42;;;;;;;9.70;4.68;;;;;;;;;;4959420;28;20058;-79
2023/09/10 05:50:13;;;;;;;10.40;5.32;;;;;;;;;;4959288;28;20055;-79
2023/09/10 05:52:44;;;;;;;14.20;4.82;;;;;;;;;;4959085;28;20050;-78
2023/09/10 05:55:15;;;;;;;14.63;5.40;;;;;;;;;;4955932;28;20073;-80
2023/09/10 05:57:46;;;;;;;15.82;5.20;;;;;;;;;;4939999;29;20047;-79
2023/09/10 06:00:16;;;;;;;15.30;5.50;;;;;;;;;;4958216;28;20043;-80
2023/09/10 06:02:49;;;;;;;11.82;5.15;;;;;;;;;;4939710;29;20051;-79
2023/09/10 06:05:21;;;;;;;13.27;4.60;;;;;;;;;;4957369;29;20035;-78
2023/09/10 06:07:53;;;;;;;9.77;4.82;;;;;;;;;;4957575;29;20043;-79
2023/09/10 06:10:24;;;;;;;18.42;5.75;;;;;;;;;;4957858;29;20062;-79
2023/09/10 06:12:54;;;;;;;14.02;5.43;;;;;;;;;;4939970;29;20047;-78
2023/09/10 06:15:26;;;;;;;13.63;6.15;;;;;;;;;;4939558;29;20054;-79
2023/09/10 06:17:58;;;;;;;14.88;5.78;;;;;;;;;;4940757;29;20035;-78
2023/09/10 06:20:30;;;;;;;14.30;6.20;;;;;;;;;;4939796;29;20051;-78
2023/09/10 06:23:03;;;;;;;21.10;7.22;;;;;;;;;;4924476;29;20487;-79
2023/09/10 06:25:33;;;;;;;14.10;6.22;;;;;;;;;;4939924;29;20103;-78
2023/09/10 06:28:05;;;;;;;11.30;5.38;;;;;;;;;;4939672;29;20074;-78
2023/09/10 06:30:40;;;;;;;10.93;5.28;;;;;;;;;;4940176;29;20051;-78
2023/09/10 06:33:10;;;;;;;12.27;5.07;;;;;;;;;;4938910;29;20054;-78
2023/09/10 06:35:40;;;;;;;17.50;5.75;;;;;;;;;;4939658;29;20054;-78
2023/09/10 06:38:12;;;;;;;10.07;5.30;;;;;;;;;;4939901;29;20062;-79
2023/09/10 06:40:48;;;;;;;9.50;4.72;;;;;;;;;;4939351;29;20047;-78
2023/09/10 06:43:19;;;;;;;29.88;6.00;;;;;;;;;;4939372;29;20043;-79
2023/09/10 06:46:01;;;;;;;21.33;4.57;;;;;;;;;;4939212;29;20047;-79
2023/09/10 06:48:32;;;;;;;38.58;5.78;;;;;;;;;;4923953;29;20047;-79
2023/09/10 06:51:04;;;;;;;24.42;5.20;;;;;;;;;;4957007;29;20043;-78
2023/09/10 06:53:35;;;;;;;12.70;5.13;;;;;;;;;;4939043;29;20443;-78
2023/09/10 06:56:05;;;;;;;17.33;5.30;;;;;;;;;;4957016;29;20363;-79
2023/09/10 06:58:37;;;;;;;18.10;5.18;;;;;;;;;;4956824;29;20031;-79
2023/09/10 07:01:10;;;;;;;22.95;5.70;;;;;;;;;;4956534;29;20358;-79
2023/09/10 07:03:41;;;;;;;12.18;5.00;;;;;;;;;;4940175;29;20039;-79
2023/09/10 07:06:14;;;;;;;15.70;5.45;;;;;;;;;;4963798;29;20044;-78
2023/09/10 07:08:47;;;;;;;10.50;5.72;;;;;;;;;;4979029;29;20050;-78
2023/09/10 07:11:19;;;;;;;8.80;5.00;;;;;;;;;;4977740;28;20047;-78
2023/09/10 07:13:51;;;;;;;13.23;5.72;;;;;;;;;;4979164;28;20023;-80
2023/09/10 07:16:22;;;;;;;12.07;5.20;;;;;;;;;;4980139;28;20035;-79
2023/09/10 07:18:54;;;;;;;12.50;4.93;;;;;;;;;;4980297;28;20034;-80
2023/09/10 07:21:25;;;;;;;13.00;5.75;;;;;;;;;;4949721;29;20394;-78
2023/09/10 07:23:56;;;;;;;14.00;6.22;;;;;;;;;;4956255;29;20043;-79
2023/09/10 07:26:26;;;;;;;15.05;5.90;;;;;;;;;;4939383;29;20386;-78
2023/09/10 07:29:02;;;;;;;14.55;5.50;;;;;;;;;;4956325;29;20055;-78
2023/09/10 07:31:36;;;;;;;14.60;5.65;;;;;;;;;;4956077;29;20046;-78
2023/09/10 07:34:07;;;;;;;20.10;5.70;;;;;;;;;;4956255;29;20047;-78
2023/09/10 07:36:38;;;;;;;22.70;6.10;;;;;;;;;;4955979;29;20039;-78
2023/09/10 07:39:11;;;;;;;27.73;6.55;;;;;;;;;;4956165;29;20070;-79
2023/09/10 07:41:49;;;;;;;21.13;6.32;;;;;;;;;;4956077;29;20039;-78
2023/09/10 07:44:20;;;;;;;17.63;6.72;;;;;;;;;;4956303;29;20043;-79
2023/09/10 07:46:52;;;;;;;25.23;6.40;;;;;;;;;;4955981;29;20039;-79
2023/09/10 07:49:25;;;;;;;38.45;6.95;;;;;;;;;;4955468;29;20054;-79
2023/09/10 07:51:57;;;;;;;33.63;8.18;;;;;;;;;;4938541;29;20043;-79
2023/09/10 07:54:27;;;;;;;33.90;6.75;;;;;;;;;;4955958;29;20043;-79
2023/09/10 07:56:57;;;;;;;24.02;7.65;;;;;;;;;;4956088;29;20379;-79
2023/09/10 07:59:28;;;;;;;31.08;7.05;;;;;;;;;;4955678;29;20043;-79
2023/09/10 08:02:02;;;;;;;30.85;7.47;;;;;;;;;;4955590;29;20039;-79
2023/09/10 08:04:34;;;;;;;39.65;8.05;;;;;;;;;;4939452;29;20108;-78
2023/09/10 08:07:04;;;;;;;32.55;7.93;;;;;;;;;;4956076;28;20039;-79
2023/09/10 08:09:39;;;;;;;28.08;7.05;;;;;;;;;;4955380;28;20051;-78
2023/09/10 08:12:13;;;;;;;26.38;7.15;;;;;;;;;;4939064;29;20062;-77
2023/09/10 08:14:44;;;;;;;26.98;6.75;;;;;;;;;;4955248;29;20103;-78
2023/09/10 08:17:14;;;;;;;22.02;6.53;;;;;;;;;;4955115;28;20039;-79
2023/09/10 08:19:46;;;;;;;21.05;6.55;;;;;;;;;;4955392;29;20042;-78
2023/09/10 08:22:17;;;;;;;20.80;7.70;;;;;;;;;;4954732;28;20047;-81
2023/09/10 08:24:48;;;;;;;37.60;7.90;;;;;;;;;;4955207;29;20043;-79
2023/09/10 08:27:20;;;;;;;18.15;7.30;;;;;;;;;;4955334;29;20070;-79
2023/09/10 08:29:51;;;;;;;26.65;7.78;;;;;;;;;;4955228;28;20386;-79
2023/09/10 08:32:23;;;;;;;22.27;7.70;;;;;;;;;;4955470;29;20043;-80
2023/09/10 08:34:54;;;;;;;34.30;8.35;;;;;;;;;;4955019;29;20108;-79
2023/09/10 08:37:24;;;;;;;37.88;8.10;;;;;;;;;;4955046;29;20039;-79
2023/09/10 08:39:56;;;;;;;58.95;8.55;;;;;;;;;;4937453;29;20047;-79
2023/09/10 08:42:39;;;;;;;35.65;8.45;;;;;;;;;;4955248;29;20047;-79
2023/09/10 08:45:11;;;;;;;61.83;9.80;;;;;;;;;;4954717;29;20039;-78
2023/09/10 08:47:43;;;;;;;47.50;9.23;;;;;;;;;;4937297;29;20043;-79
2023/09/10 08:50:16;;;;;;;28.80;7.53;;;;;;;;;;4954129;29;20048;-79
2023/09/10 08:52:49;;;;;;;47.58;9.93;;;;;;;;;;4955407;29;20062;-78
2023/09/10 08:55:22;;;;;;;26.40;8.48;;;;;;;;;;4955390;28;20043;-78
2023/09/10 08:57:56;;;;;;;26.25;8.75;;;;;;;;;;4970916;28;20035;-79
2023/09/10 09:00:30;;;;;;;27.23;7.90;;;;;;;;;;4957528;28;20046;-79
2023/09/10 09:03:04;;;;;;;19.13;7.40;;;;;;;;;;4966957;28;20046;-79
2023/09/10 09:05:36;;;;;;;24.42;7.15;;;;;;;;;;4944020;29;20047;-78
2023/09/10 09:08:17;;;;;;;30.15;7.50;;;;;;;;;;4954780;28;20368;-78
2023/09/10 09:10:54;;;;;;;25.67;7.82;;;;;;;;;;4967342;28;20051;-79
2023/09/10 09:13:38;;;;;;;21.42;8.32;;;;;;;;;;4955036;29;20050;-78
2023/09/10 09:16:12;;;;;;;21.40;7.57;;;;;;;;;;4954941;29;20051;-79
2023/09/10 09:18:45;;;;;;;31.65;8.38;;;;;;;;;;4955230;29;20054;-78
2023/09/10 09:21:21;;;;;;;17.40;8.07;;;;;;;;;;4954908;29;20067;-78
2023/09/10 09:24:01;;;;;;;24.42;8.65;;;;;;;;;;4936960;29;20051;-79
2023/09/10 09:26:34;;;;;;;27.33;8.23;;;;;;;;;;4954782;29;20043;-79
2023/09/10 09:29:04;;;;;;;;;;;;;;;;;;4936662;29;20054;-79
2023/09/10 09:31:38;;;;;;;25.73;6.35;;;;;;;;;;4954248;29;19918;-79
2023/09/10 09:34:10;;;;;;;15.65;7.15;;;;;;;;;;4955815;28;20039;-79
2023/09/10 09:36:42;;;;;;;19.90;7.25;;;;;;;;;;4957315;29;20154;-79
2023/09/10 09:39:17;;;;;;;21.08;6.47;;;;;;;;;;4958475;29;20047;-79
2023/09/10 09:41:55;;;;;;;19.13;6.93;;;;;;;;;;4958274;29;20047;-78
2023/09/10 09:44:27;;;;;;;25.27;6.82;;;;;;;;;;4958295;29;20050;-79
2023/09/10 09:46:58;;;;;;;27.00;7.00;;;;;;;;;;4958109;29;20047;-79
2023/09/10 09:49:28;;;;;;;17.88;7.28;;;;;;;;;;4958073;29;20051;-78
2023/09/10 09:51:59;;;;;;;18.27;7.25;;;;;;;;;;4924631;29;20043;-79
2023/09/10 09:54:34;;;;;;;26.30;7.55;;;;;;;;;;4958182;29;20035;-79
2023/09/10 09:57:13;;;;;;;17.27;7.55;;;;;;;;;;4958029;29;20043;-79
2023/09/10 09:59:44;;;;;;;21.15;7.10;;;;;;;;;;4940773;29;20075;-79
2023/09/10 10:02:18;;;;;;;16.98;7.57;;;;;;;;;;4940370;29;20054;-80
2023/09/10 10:04:56;;;;;;;16.20;7.63;;;;;;;;;;4957820;29;20043;-79
2023/09/10 10:07:28;;;;;;;28.92;7.25;;;;;;;;;;4957704;29;20054;-79
2023/09/10 10:10:19;;;;;;;;;;;;;;;;;;4957531;29;20063;-79
2023/09/10 10:12:52;;;;;;;25.33;6.40;;;;;;;;;;4957891;28;19918;-79
2023/09/10 10:15:24;;;;;;;22.92;6.78;;;;;;;;;;4976808;28;20053;-79
2023/09/10 10:18:00;;;;;;;14.95;7.07;;;;;;;;;;4958985;28;20047;-79
2023/09/10 10:20:31;;;;;;;21.40;7.00;;;;;;;;;;4960375;28;20460;-79
2023/09/10 10:23:02;;;;;;;12.77;6.68;;;;;;;;;;4976724;28;20490;-80
2023/09/10 10:25:58;;;;;;;10.10;5.32;;;;;;;;;;4975761;28;20054;-79
2023/09/10 10:28:33;;;;;;;10.43;5.20;;;;;;;;;;4976570;28;20490;-79
2023/09/10 10:31:22;;;;;;;11.38;5.60;;;;;;;;;;4976855;28;20485;-80
2023/09/10 10:34:10;;;;;;;9.45;5.57;;;;;;;;;;4976612;28;20134;-79
2023/09/10 10:37:11;;;;;;;12.63;5.43;;;;;;;;;;4977004;28;20480;-80
2023/09/10 10:39:54;;;;;;;10.70;5.82;;;;;;;;;;4976750;28;20039;-80
2023/09/10 10:42:37;;;;;;;14.32;6.25;;;;;;;;;;4976284;28;20049;-79
2023/09/10 10:45:09;;;;;;;9.00;5.20;;;;;;;;;;4976456;28;20043;-79
2023/09/10 10:47:48;;;;;;;9.75;6.03;;;;;;;;;;4975896;28;20458;-80
2023/09/10 10:50:26;;;;;;;11.57;6.07;;;;;;;;;;4976142;28;20054;-79
2023/09/10 10:53:06;;;;;;;10.68;6.05;;;;;;;;;;4976210;28;20473;-79
2023/09/10 10:55:39;;;;;;;27.33;14.00;;;;;;;;;;4976570;28;20046;-80
2023/09/10 10:58:11;;;;;;;20.20;11.38;;;;;;;;;;4975711;28;20398;-79
2023/09/10 11:00:42;;;;;;;20.38;11.00;;;;;;;;;;4975002;28;20039;-79
2023/09/10 11:03:15;;;;;;;15.50;8.43;;;;;;;;;;4958393;28;20054;-80
2023/09/10 11:05:54;;;;;;;30.00;14.77;;;;;;;;;;4972870;28;20054;-79
2023/09/10 11:08:33;;;;;;;38.67;20.58;;;;;;;;;;4972939;28;20042;-79
2023/09/10 11:11:08;;;;;;;20.60;10.98;;;;;;;;;;4972361;28;20051;-79
2023/09/10 11:14:02;;;;;;;16.55;9.63;;;;;;;;;;4974665;28;20050;-78
2023/09/10 11:16:35;;;;;;;17.08;9.55;;;;;;;;;;4957003;28;20051;-78
2023/09/10 11:19:08;;;;;;;17.92;9.40;;;;;;;;;;4958082;28;20478;-78
2023/09/10 11:21:56;;;;;;;18.83;11.38;;;;;;;;;;4975914;28;20363;-79
2023/09/10 11:24:34;;;;;;;21.20;11.45;;;;;;;;;;4957244;28;20066;-78
2023/09/10 11:27:36;;;;;;;15.90;8.43;;;;;;;;;;4972997;28;20039;-78
2023/09/10 11:30:13;;;;;;;18.83;10.75;;;;;;;;;;4925151;28;20058;-80
2023/09/10 11:32:46;;;;;;;16.13;9.13;;;;;;;;;;4975222;28;20062;-78
2023/09/10 11:35:23;;;;;;;19.00;9.70;;;;;;;;;;4975424;28;20043;-78
2023/09/10 11:37:56;;;;;;;17.00;10.68;;;;;;;;;;4957445;28;20359;-78
2023/09/10 11:40:30;;;;;;;22.85;13.55;;;;;;;;;;4974808;28;20043;-78
2023/09/10 11:43:00;;;;;;;23.90;13.23;;;;;;;;;;4957132;28;20051;-77
2023/09/10 11:45:34;;;;;;;25.58;14.07;;;;;;;;;;4974619;28;20050;-78
2023/09/10 11:48:06;;;;;;;24.25;14.75;;;;;;;;;;4975556;28;20047;-77
2023/09/10 11:50:39;;;;;;;24.50;15.57;;;;;;;;;;4974891;28;20485;-77
2023/09/10 11:53:14;;;;;;;27.60;16.10;;;;;;;;;;4975645;28;20046;-77
2023/09/10 11:55:47;;;;;;;27.50;16.38;;;;;;;;;;4975098;28;20045;-78
2023/09/10 11:58:18;;;;;;;22.65;14.70;;;;;;;;;;4975168;28;20050;-77
2023/09/10 12:00:54;;;;;;;22.55;13.45;;;;;;;;;;4975084;28;20050;-78
2023/09/10 12:03:27;;;;;;;19.90;11.73;;;;;;;;;;4975283;28;20046;-78
2023/09/10 12:06:02;;;;;;;16.48;7.70;;;;;;;;;;4974907;28;20067;-80
2023/09/10 12:08:32;;;;;;;9.45;4.88;;;;;;;;;;4956949;28;20505;-78
2023/09/10 12:11:13;;;;;;;11.93;6.30;;;;;;;;;;4975041;28;20046;-79
2023/09/10 12:13:43;;;;;;;9.32;4.93;;;;;;;;;;4975033;28;20061;-79
2023/09/10 12:16:17;;;;;;;8.55;3.53;;;;;;;;;;4960000;28;20042;-79
2023/09/10 12:18:50;;;;;;;9.73;4.38;;;;;;;;;;4990836;28;20049;-79
2023/09/10 12:21:23;;;;;;;8.52;4.00;;;;;;;;;;4995044;28;20031;-78
2023/09/10 12:23:54;;;;;;;8.55;4.22;;;;;;;;;;4997681;28;20031;-80
2023/09/10 12:26:24;;;;;;;8.02;3.33;;;;;;;;;;4998046;28;20025;-79
2023/09/10 12:28:55;;;;;;;7.38;3.25;;;;;;;;;;4982162;28;20034;-79
2023/09/10 12:31:27;;;;;;;7.53;3.88;;;;;;;;;;4997707;28;20034;-80
2023/09/10 12:33:58;;;;;;;7.40;3.90;;;;;;;;;;4960474;28;20042;-79
2023/09/10 12:36:28;;;;;;;7.20;3.92;;;;;;;;;;4957705;28;20054;-78
2023/09/10 12:39:00;;;;;;;6.20;3.47;;;;;;;;;;4974544;28;20045;-79
2023/09/10 12:41:33;;;;;;;7.43;3.78;;;;;;;;;;4957623;28;20062;-80
2023/09/10 12:44:07;;;;;;;7.43;3.55;;;;;;;;;;4974364;28;20409;-79
2023/09/10 12:46:40;;;;;;;7.30;3.25;;;;;;;;;;4974631;28;20482;-79
2023/09/10 12:49:11;;;;;;;5.70;3.42;;;;;;;;;;4974865;28;20046;-82
2023/09/10 12:51:43;;;;;;;9.10;3.58;;;;;;;;;;4974312;28;20408;-82
2023/09/10 12:54:15;;;;;;;6.15;3.10;;;;;;;;;;4974521;28;20047;-83
2023/09/10 12:56:51;;;;;;;5.10;2.88;;;;;;;;;;4974587;28;20054;-83
2023/09/10 12:59:22;;;;;;;6.75;3.83;;;;;;;;;;4928279;29;20043;-84
2023/09/10 13:01:59;;;;;;;6.45;3.88;;;;;;;;;;4951929;29;20490;-83
2023/09/10 13:04:29;;;;;;;7.28;4.20;;;;;;;;;;4953285;29;20046;-82
2023/09/10 13:07:00;;;;;;;6.05;3.50;;;;;;;;;;4953400;29;20054;-82
2023/09/10 13:09:34;;;;;;;5.75;3.35;;;;;;;;;;4955023;28;20687;-82
2023/09/10 13:12:07;;;;;;;5.60;3.15;;;;;;;;;;4956964;29;20046;-83
2023/09/10 13:14:39;;;;;;;5.85;3.35;;;;;;;;;;4958312;29;20047;-83
2023/09/10 13:17:13;;;;;;;6.15;3.08;;;;;;;;;;4958806;29;20043;-85
2023/09/10 13:19:49;;;;;;;5.97;2.90;;;;;;;;;;4938546;29;20058;-84
2023/09/10 13:22:24;;;;;;;7.25;3.05;;;;;;;;;;4958090;29;20043;-82
2023/09/10 13:24:54;;;;;;;5.68;3.08;;;;;;;;;;4958334;29;20050;-81
2023/09/10 13:27:27;;;;;;;11.38;3.30;;;;;;;;;;4958162;29;20039;-82
2023/09/10 13:29:58;;;;;;;6.07;3.08;;;;;;;;;;4956633;29;20043;-84
2023/09/10 13:32:28;;;;;;;6.32;3.20;;;;;;;;;;4941806;29;20055;-84
2023/09/10 13:34:58;;;;;;;5.93;3.33;;;;;;;;;;4957189;29;20043;-84
2023/09/10 13:37:30;;;;;;;;;;;;;;;;;;4958420;29;20039;-84
2023/09/10 13:40:06;;;;;;;5.40;2.88;;;;;;;;;;4956508;29;19918;-84
2023/09/10 13:42:37;;;;;;;9.32;3.80;;;;;;;;;;4940903;29;20054;-85
2023/09/10 13:45:08;;;;;;;5.35;3.28;;;;;;;;;;4957070;29;20383;-84
2023/09/10 13:47:39;;;;;;;5.90;3.03;;;;;;;;;;4958205;29;20475;-83
2023/09/10 13:50:11;;;;;;;5.90;3.42;;;;;;;;;;4940447;29;20051;-84
2023/09/10 13:52:43;;;;;;;5.97;3.03;;;;;;;;;;4958024;29;20043;-84
2023/09/10 13:55:13;;;;;;;4.75;2.83;;;;;;;;;;4940564;29;20051;-83
2023/09/10 13:57:46;;;;;;;5.35;2.72;;;;;;;;;;4957663;29;20043;-85
2023/09/10 14:00:17;;;;;;;6.00;2.92;;;;;;;;;;4957888;29;20378;-84
2023/09/10 14:02:48;;;;;;;7.35;3.03;;;;;;;;;;4940117;29;20102;-86
2023/09/10 14:05:19;;;;;;;5.20;2.80;;;;;;;;;;4958202;29;20035;-83
2023/09/10 14:07:49;;;;;;;6.85;3.25;;;;;;;;;;4957741;29;20486;-84
2023/09/10 14:10:20;;;;;;;5.50;2.80;;;;;;;;;;4940800;29;20054;-84
2023/09/10 14:12:53;;;;;;;4.43;2.47;;;;;;;;;;4939744;29;20047;-83
2023/09/10 14:15:25;;;;;;;4.90;3.40;;;;;;;;;;4957864;29;20491;-84
2023/09/10 14:17:57;;;;;;;11.65;2.63;;;;;;;;;;4940384;29;20046;-83
2023/09/10 14:20:28;;;;;;;6.97;2.55;;;;;;;;;;4957630;28;20378;-82
2023/09/10 14:22:59;;;;;;;4.85;2.60;;;;;;;;;;4939022;29;20043;-85
2023/09/10 14:25:30;;;;;;;4.47;2.22;;;;;;;;;;4940531;29;20043;-84
2023/09/10 14:28:01;;;;;;;4.30;2.28;;;;;;;;;;4957273;29;20062;-84
2023/09/10 14:30:31;;;;;;;3.97;2.47;;;;;;;;;;4956139;29;20035;-84
2023/09/10 14:33:02;;;;;;;4.70;2.33;;;;;;;;;;4924295;29;20062;-85
2023/09/10 14:35:33;;;;;;;4.07;2.33;;;;;;;;;;4957440;29;20474;-84
2023/09/10 14:38:05;;;;;;;5.82;2.33;;;;;;;;;;4957179;29;20371;-84
2023/09/10 14:40:35;;;;;;;4.75;2.47;;;;;;;;;;4941074;29;20058;-84
2023/09/10 14:43:06;;;;;;;5.72;2.50;;;;;;;;;;4957144;29;20116;-83
2023/09/10 14:45:37;;;;;;;4.07;2.65;;;;;;;;;;4940368;29;20039;-85
2023/09/10 14:48:07;;;;;;;5.13;2.63;;;;;;;;;;4940082;29;20050;-83
2023/09/10 14:50:41;;;;;;;5.43;2.67;;;;;;;;;;4940123;29;20071;-85
2023/09/10 14:53:14;;;;;;;4.60;2.55;;;;;;;;;;4957255;29;20375;-83
2023/09/10 14:55:47;;;;;;;4.53;2.63;;;;;;;;;;4956416;29;20043;-83
2023/09/10 14:58:17;;;;;;;5.05;2.40;;;;;;;;;;4956034;29;20145;-83
2023/09/10 15:00:48;;;;;;;4.55;2.67;;;;;;;;;;4957002;29;20053;-83
2023/09/10 15:03:21;;;;;;;5.82;2.80;;;;;;;;;;4956636;29;20032;-83
2023/09/10 15:05:52;;;;;;;5.38;2.90;;;;;;;;;;4939022;29;20050;-85
2023/09/10 15:08:23;;;;;;;3.83;2.30;;;;;;;;;;4938856;29;20051;-85